Time;durP1;ratioP1;P1;durP2;ratioP2;P2;SDS_P1;SDS_P2;PMS_P1;PMS_P2;Temp;Humidity;BMP_temperature;BMP_pressure;BME280_temperature;BME280_humidity;BME280_pressure;Samples;Min_cycle;Max_cycle;Signal;HPM_P1;HPM_P2
2022/10/02 00:00:25;;;;;;;20.58;4.50;;;12.30;99.90;;;;;;5154936;27;20039;-67
2022/10/02 00:03:02;;;;;;;12.45;3.72;;;12.30;99.90;;;;;;5070549;28;20155;-67
2022/10/02 00:05:40;;;;;;;17.58;4.10;;;12.30;99.90;;;;;;5070209;28;20045;-66
2022/10/02 00:08:15;;;;;;;21.73;4.40;;;12.20;99.90;;;;;;5070599;28;20044;-66
2022/10/02 00:10:43;;;;;;;17.55;3.75;;;12.20;99.90;;;;;;5070410;28;20063;-66
2022/10/02 00:13:15;;;;;;;12.98;3.97;;;12.20;99.90;;;;;;5070356;28;20429;-66
2022/10/02 00:15:41;;;;;;;12.60;3.63;;;12.20;99.90;;;;;;5070088;28;20082;-66
2022/10/02 00:18:22;;;;;;;14.90;3.97;;;12.30;99.90;;;;;;5070231;28;20540;-66
2022/10/02 00:21:08;;;;;;;18.15;3.35;;;12.30;99.90;;;;;;5070319;28;20044;-66
2022/10/02 00:23:47;;;;;;;11.82;3.88;;;12.30;99.90;;;;;;5053721;28;20593;-66
2022/10/02 00:26:25;;;;;;;16.40;4.28;;;12.30;99.90;;;;;;5070001;28;20086;-66
2022/10/02 00:29:06;;;;;;;15.80;4.07;;;12.30;99.90;;;;;;5070338;28;20467;-67
2022/10/02 00:31:44;;;;;;;15.30;5.53;;;12.20;99.90;;;;;;5053267;28;20056;-66
2022/10/02 00:34:56;;;;;;;16.77;5.60;;;12.20;99.90;;;;;;5069744;28;20032;-67
2022/10/02 00:37:34;;;;;;;13.00;4.13;;;12.30;99.90;;;;;;5130914;27;20051;-67
2022/10/02 00:40:31;;;;;;;14.95;3.38;;;12.20;99.90;;;;;;5152610;27;20034;-67
2022/10/02 00:43:10;;;;;;;8.93;3.88;;;12.20;99.90;;;;;;5154338;27;20043;-67
2022/10/02 00:46:21;;;;;;;15.75;3.25;;;12.20;99.90;;;;;;5153790;27;20057;-66
2022/10/02 00:48:56;;;;;;;16.10;3.78;;;12.20;99.90;;;;;;5154269;27;20069;-67
2022/10/02 00:51:35;;;;;;;15.07;3.70;;;12.20;99.90;;;;;;5153993;27;20402;-66
2022/10/02 00:54:41;;;;;;;14.27;3.60;;;12.20;99.90;;;;;;5153828;27;20297;-66
2022/10/02 00:57:19;;;;;;;15.07;4.20;;;12.20;99.90;;;;;;5153921;27;20087;-66
2022/10/02 01:00:10;;;;;;;15.57;3.22;;;12.20;99.90;;;;;;5153709;27;20042;-66
2022/10/02 01:03:05;;;;;;;16.25;3.45;;;12.20;99.90;;;;;;5140930;27;20046;-67
2022/10/02 01:05:33;;;;;;;15.00;3.85;;;12.10;99.90;;;;;;5153464;27;20034;-66
2022/10/02 01:07:59;;;;;;;17.23;3.25;;;12.20;99.90;;;;;;5152438;27;20390;-66
2022/10/02 01:10:25;;;;;;;11.13;3.50;;;12.20;99.90;;;;;;5153480;27;20038;-66
2022/10/02 01:12:53;;;;;;;13.70;3.65;;;12.20;99.90;;;;;;5153726;27;20050;-66
2022/10/02 01:15:21;;;;;;;15.18;4.35;;;12.20;99.90;;;;;;5153058;27;20138;-66
2022/10/02 01:17:49;;;;;;;11.50;3.85;;;12.20;99.90;;;;;;5153755;27;20102;-67
2022/10/02 01:20:20;;;;;;;16.80;4.28;;;12.20;99.90;;;;;;5153327;27;20049;-66
2022/10/02 01:22:57;;;;;;;15.68;4.07;;;12.20;99.90;;;;;;5153504;27;20125;-66
2022/10/02 01:25:23;;;;;;;23.17;3.90;;;12.20;99.90;;;;;;5152059;27;20086;-67
2022/10/02 01:27:51;;;;;;;12.98;3.83;;;12.20;99.90;;;;;;5153196;27;20031;-67
2022/10/02 01:30:19;;;;;;;14.90;3.78;;;12.20;99.90;;;;;;5153375;27;20043;-66
2022/10/02 01:33:00;;;;;;;14.48;4.35;;;12.20;99.90;;;;;;5153642;27;20084;-67
2022/10/02 01:35:30;;;;;;;15.02;5.03;;;12.20;99.90;;;;;;5153128;27;20031;-66
2022/10/02 01:37:57;;;;;;;18.25;3.92;;;12.20;99.90;;;;;;5153438;27;20080;-67
2022/10/02 01:40:27;;;;;;;22.40;4.90;;;12.20;99.90;;;;;;5153145;27;20042;-67
2022/10/02 01:42:57;;;;;;;15.18;4.10;;;12.20;99.90;;;;;;5152191;27;20049;-66
2022/10/02 01:45:47;;;;;;;17.00;3.30;;;12.20;99.90;;;;;;5153058;27;21655;-66
2022/10/02 01:48:22;;;;;;;16.48;3.22;;;12.20;99.90;;;;;;5153296;27;20043;-67
2022/10/02 01:51:13;;;;;;;13.25;3.63;;;12.20;99.90;;;;;;5153161;27;20035;-66
2022/10/02 01:53:52;;;;;;;12.68;3.20;;;12.20;99.90;;;;;;5153237;27;20052;-66
2022/10/02 01:56:38;;;;;;;13.05;2.72;;;12.20;99.90;;;;;;5153242;27;20435;-66
2022/10/02 01:59:40;;;;;;;20.60;3.97;;;12.20;99.90;;;;;;5156825;27;20045;-66
2022/10/02 02:02:24;;;;;;;10.80;3.47;;;12.20;99.90;;;;;;5157330;27;20054;-67
2022/10/02 02:05:02;;;;;;;17.58;3.20;;;12.30;99.90;;;;;;5156942;27;20340;-67
2022/10/02 02:07:34;;;;;;;12.13;3.05;;;12.30;99.90;;;;;;5156975;27;20394;-66
2022/10/02 02:10:25;;;;;;;20.58;3.78;;;12.30;99.90;;;;;;5157426;27;20038;-67
2022/10/02 02:13:02;;;;;;;12.88;3.30;;;12.30;99.90;;;;;;5155907;27;20050;-66
2022/10/02 02:15:38;;;;;;;10.82;2.67;;;12.30;99.90;;;;;;5155517;27;20049;-66
2022/10/02 02:18:19;;;;;;;14.60;3.33;;;12.30;99.90;;;;;;5155697;27;20043;-67
2022/10/02 02:20:50;;;;;;;13.05;3.42;;;12.30;99.90;;;;;;5157022;27;20492;-67
2022/10/02 02:23:21;;;;;;;15.65;2.97;;;12.30;99.90;;;;;;5157055;27;20053;-67
2022/10/02 02:25:50;;;;;;;15.75;3.30;;;12.30;99.90;;;;;;5155263;27;20043;-66
2022/10/02 02:28:19;;;;;;;17.95;3.47;;;12.30;99.90;;;;;;5156598;27;20047;-67
2022/10/02 02:30:48;;;;;;;22.33;3.67;;;12.30;99.90;;;;;;5156829;27;20046;-66
2022/10/02 02:33:22;;;;;;;11.50;2.78;;;12.30;99.90;;;;;;5156906;27;20042;-67
2022/10/02 02:35:53;;;;;;;12.60;3.33;;;12.30;99.90;;;;;;5156403;27;20046;-67
2022/10/02 02:38:30;;;;;;;15.23;3.10;;;12.30;99.90;;;;;;5156639;27;20038;-67
2022/10/02 02:41:03;;;;;;;11.43;3.00;;;12.20;99.90;;;;;;5155196;27;20047;-67
2022/10/02 02:43:34;;;;;;;11.55;2.83;;;12.20;99.90;;;;;;5156555;27;20050;-67
2022/10/02 02:46:06;;;;;;;17.33;3.10;;;12.20;99.90;;;;;;5137627;27;20047;-66
2022/10/02 02:48:38;;;;;;;14.88;2.90;;;12.20;99.90;;;;;;5156432;27;20083;-67
2022/10/02 02:51:14;;;;;;;13.93;2.85;;;12.20;99.90;;;;;;5156278;27;20486;-66
2022/10/02 02:53:52;;;;;;;13.75;3.22;;;12.20;99.90;;;;;;5156611;27;20043;-67
2022/10/02 02:56:20;;;;;;;14.23;3.13;;;12.20;99.90;;;;;;5155170;27;20430;-67
2022/10/02 02:59:09;;;;;;;15.93;3.00;;;12.20;99.90;;;;;;5156318;27;20034;-66
2022/10/02 03:01:35;;;;;;;15.60;3.38;;;12.20;99.90;;;;;;5156210;27;20546;-67
2022/10/02 03:04:01;;;;;;;14.68;3.20;;;12.10;99.90;;;;;;5155793;27;20038;-67
2022/10/02 03:06:39;;;;;;;17.98;3.15;;;12.20;99.90;;;;;;5154658;27;20175;-67
2022/10/02 03:09:09;;;;;;;14.73;3.08;;;12.20;99.90;;;;;;5153540;27;20114;-67
2022/10/02 03:11:52;;;;;;;13.95;3.03;;;12.10;99.90;;;;;;5154734;27;20555;-67
2022/10/02 03:14:39;;;;;;;15.65;2.90;;;12.10;99.90;;;;;;5155673;27;20034;-67
2022/10/02 03:17:32;;;;;;;11.55;2.80;;;12.10;99.90;;;;;;5155780;27;20034;-66
2022/10/02 03:20:07;;;;;;;8.77;3.35;;;12.10;99.90;;;;;;5155712;27;20494;-67
2022/10/02 03:22:58;;;;;;;14.70;2.90;;;12.10;99.90;;;;;;5155672;27;20170;-66
2022/10/02 03:25:40;;;;;;;13.27;3.30;;;12.10;99.90;;;;;;5155640;27;20035;-66
2022/10/02 03:28:27;;;;;;;15.90;2.67;;;12.10;99.90;;;;;;5155567;27;20045;-67
2022/10/02 03:30:54;;;;;;;12.73;2.78;;;12.10;99.90;;;;;;5154396;27;20091;-67
2022/10/02 03:33:21;;;;;;;9.07;2.55;;;12.00;99.90;;;;;;5155786;27;20084;-67
2022/10/02 03:35:47;;;;;;;12.50;2.35;;;12.00;99.90;;;;;;5154201;27;20046;-67
2022/10/02 03:38:13;;;;;;;12.70;2.70;;;12.00;99.90;;;;;;5155615;27;20031;-66
2022/10/02 03:40:39;;;;;;;13.88;2.88;;;12.00;99.90;;;;;;5155512;27;20041;-67
2022/10/02 03:43:05;;;;;;;15.55;2.60;;;12.00;99.90;;;;;;5155361;27;20038;-67
2022/10/02 03:45:31;;;;;;;12.88;2.95;;;12.00;99.90;;;;;;5154938;27;20118;-66
2022/10/02 03:47:56;;;;;;;9.52;2.50;;;12.00;99.90;;;;;;5155262;27;20114;-66
2022/10/02 03:50:22;;;;;;;7.22;2.70;;;12.00;99.90;;;;;;5155495;27;20087;-67
2022/10/02 03:52:51;;;;;;;10.77;2.80;;;11.90;99.90;;;;;;5155201;27;20038;-66
2022/10/02 03:55:34;;;;;;;8.07;2.00;;;11.90;99.90;;;;;;5153568;27;20045;-66
2022/10/02 03:58:08;;;;;;;15.43;2.20;;;11.90;99.90;;;;;;5154082;27;20170;-67
2022/10/02 04:00:48;;;;;;;11.15;2.20;;;12.00;99.90;;;;;;5155359;27;20049;-67
2022/10/02 04:03:19;;;;;;;8.65;2.13;;;11.90;99.90;;;;;;5153894;27;20439;-67
2022/10/02 04:05:57;;;;;;;6.43;2.22;;;11.90;99.90;;;;;;5154759;27;20039;-66
2022/10/02 04:08:33;;;;;;;7.15;2.28;;;11.90;99.90;;;;;;5154873;27;20664;-67
2022/10/02 04:11:06;;;;;;;7.20;2.00;;;11.90;99.90;;;;;;5153877;27;20035;-66
2022/10/02 04:14:05;;;;;;;7.68;1.98;;;11.90;99.90;;;;;;5154953;27;20031;-67
2022/10/02 04:16:36;;;;;;;8.30;2.00;;;11.90;99.90;;;;;;5144271;27;20050;-67
2022/10/02 04:19:39;;;;;;;9.15;2.28;;;11.90;99.90;;;;;;5154622;27;20087;-66
2022/10/02 04:22:21;;;;;;;;;;;11.90;99.90;;;;;;5112092;27;20398;-67
2022/10/02 04:24:59;;;;;;;12.80;3.03;;;11.90;99.90;;;;;;5154356;27;19994;-66
2022/10/02 04:28:03;;;;;;;8.13;2.25;;;11.80;99.90;;;;;;5154680;27;20387;-66
2022/10/02 04:30:29;;;;;;;7.15;1.90;;;11.90;99.90;;;;;;5154419;27;20039;-67
2022/10/02 04:33:05;;;;;;;11.40;2.40;;;11.80;99.90;;;;;;5153406;27;20067;-67
2022/10/02 04:36:12;;;;;;;10.70;2.08;;;11.80;99.90;;;;;;5154062;27;20043;-67
2022/10/02 04:39:02;;;;;;;12.18;2.33;;;11.80;99.90;;;;;;5152417;27;20042;-67
2022/10/02 04:41:48;;;;;;;8.75;2.42;;;11.80;99.90;;;;;;5154245;27;20498;-67
2022/10/02 04:44:22;;;;;;;11.82;2.65;;;11.80;99.90;;;;;;5154101;27;20106;-67
2022/10/02 04:47:12;;;;;;;17.13;2.78;;;11.80;99.90;;;;;;5152955;27;20044;-67
2022/10/02 04:49:59;;;;;;;11.18;2.72;;;11.80;99.90;;;;;;5154181;27;20067;-66
2022/10/02 04:52:44;;;;;;;12.68;2.83;;;11.80;99.90;;;;;;5152911;27;20042;-66
2022/10/02 04:55:55;;;;;;;15.70;3.00;;;11.80;99.90;;;;;;5153702;27;20034;-67
2022/10/02 04:59:02;;;;;;;13.45;2.95;;;11.80;99.90;;;;;;5153760;27;20061;-66
2022/10/02 05:01:55;;;;;;;16.33;3.00;;;11.80;99.90;;;;;;5135607;27;20061;-67
2022/10/02 05:04:39;;;;;;;14.02;3.15;;;11.80;99.90;;;;;;5152201;27;20045;-67
2022/10/02 05:07:42;;;;;;;18.88;2.78;;;11.80;99.90;;;;;;5153853;27;20034;-67
2022/10/02 05:10:51;;;;;;;9.88;2.75;;;11.80;99.90;;;;;;5153695;27;20030;-67
2022/10/02 05:13:52;;;;;;;12.32;3.22;;;11.80;99.90;;;;;;5152668;27;20067;-67
2022/10/02 05:16:37;;;;;;;13.15;3.20;;;11.70;99.90;;;;;;5153675;27;20110;-67
2022/10/02 05:19:24;;;;;;;11.02;2.60;;;11.80;99.90;;;;;;5153577;27;20038;-67
2022/10/02 05:22:17;;;;;;;15.95;3.13;;;11.80;99.90;;;;;;5153584;27;20436;-67
2022/10/02 05:24:51;;;;;;;;;;;11.80;99.90;;;;;;5153661;27;20031;-67
2022/10/02 05:27:25;;;;;;;10.23;3.08;;;11.80;99.90;;;;;;5153341;27;19923;-67
2022/10/02 05:30:13;;;;;;;13.30;3.08;;;11.80;99.90;;;;;;5152178;27;20035;-67
2022/10/02 05:33:00;;;;;;;13.88;2.97;;;11.80;99.90;;;;;;5149699;27;20038;-66
2022/10/02 05:36:04;;;;;;;9.75;2.83;;;11.70;99.90;;;;;;5150691;27;20398;-67
2022/10/02 05:38:48;;;;;;;18.95;3.30;;;11.80;99.90;;;;;;5149687;27;20498;-66
2022/10/02 05:41:42;;;;;;;12.68;3.28;;;11.80;99.90;;;;;;5152276;27;20039;-66
2022/10/02 05:44:16;;;;;;;9.32;2.42;;;11.70;99.90;;;;;;5152406;27;20118;-67
2022/10/02 05:46:50;;;;;;;18.42;2.83;;;11.70;99.90;;;;;;5153475;27;20034;-67
2022/10/02 05:50:00;;;;;;;15.43;3.10;;;11.70;99.90;;;;;;5153446;27;20066;-67
2022/10/02 05:52:38;;;;;;;19.05;3.35;;;11.80;99.90;;;;;;5152003;27;20049;-67
2022/10/02 05:55:17;;;;;;;19.83;5.15;;;11.70;99.90;;;;;;5153204;27;20035;-67
2022/10/02 05:57:47;;;;;;;14.82;4.32;;;11.80;99.90;;;;;;5152258;27;20034;-67
2022/10/02 06:00:25;;;;;;;21.80;3.90;;;11.70;99.90;;;;;;5153181;27;20079;-67
2022/10/02 06:03:08;;;;;;;11.82;4.03;;;11.70;99.90;;;;;;5153230;27;20043;-67
2022/10/02 06:05:47;;;;;;;9.45;3.00;;;11.80;99.90;;;;;;5152945;27;20046;-67
2022/10/02 06:08:19;;;;;;;10.90;3.10;;;11.70;99.90;;;;;;5153328;27;20038;-67
2022/10/02 06:10:50;;;;;;;;;;;11.70;99.90;;;;;;5153655;27;20039;-67
2022/10/02 06:13:34;;;;;;;14.27;3.40;;;11.70;99.90;;;;;;5153083;27;20420;-67
2022/10/02 06:16:25;;;;;;;16.15;4.05;;;11.80;99.90;;;;;;5153024;27;20524;-67
2022/10/02 06:19:09;;;;;;;17.30;3.45;;;11.80;99.90;;;;;;5153092;27;20030;-67
2022/10/02 06:21:48;;;;;;;14.90;3.78;;;11.80;99.90;;;;;;5151912;27;20035;-66
2022/10/02 06:24:24;;;;;;;16.75;3.33;;;11.80;99.90;;;;;;5153018;27;20668;-67
2022/10/02 06:27:16;;;;;;;13.95;3.22;;;11.80;99.90;;;;;;5153072;27;20043;-67
2022/10/02 06:29:47;;;;;;;15.98;3.40;;;11.80;99.90;;;;;;5153056;27;20049;-67
2022/10/02 06:32:32;;;;;;;19.58;3.90;;;11.80;99.90;;;;;;5152950;27;20073;-66
2022/10/02 06:34:57;;;;;;;17.55;3.88;;;11.90;99.90;;;;;;5152796;27;20046;-67
2022/10/02 06:37:49;;;;;;;27.77;3.20;;;11.90;99.90;;;;;;5152712;27;20034;-67
2022/10/02 06:40:41;;;;;;;15.73;3.80;;;11.90;99.90;;;;;;5152801;27;20035;-67
2022/10/02 06:43:26;;;;;;;14.45;3.67;;;11.90;99.90;;;;;;5153463;27;20444;-69
2022/10/02 06:46:16;;;;;;;23.45;4.35;;;11.90;99.90;;;;;;5155243;27;20469;-67
2022/10/02 06:49:01;;;;;;;11.57;2.80;;;12.00;99.90;;;;;;5156411;27;20035;-68
2022/10/02 06:51:53;;;;;;;10.63;2.72;;;12.00;99.90;;;;;;5153117;27;20039;-67
2022/10/02 06:54:37;;;;;;;18.83;3.28;;;12.10;99.90;;;;;;5151901;27;20054;-67
2022/10/02 06:57:13;;;;;;;18.13;4.07;;;12.10;99.90;;;;;;5156105;27;20034;-68
2022/10/02 07:00:11;;;;;;;18.65;3.85;;;12.10;99.90;;;;;;5156250;27;20042;-68
2022/10/02 07:02:58;;;;;;;17.60;3.50;;;12.20;99.90;;;;;;5156341;27;20121;-68
2022/10/02 07:05:42;;;;;;;22.13;3.75;;;12.20;99.90;;;;;;5155778;27;20090;-67
2022/10/02 07:08:45;;;;;;;19.10;4.07;;;12.20;99.90;;;;;;5154700;27;20042;-67
2022/10/02 07:11:32;;;;;;;16.13;3.40;;;12.20;99.90;;;;;;5155912;27;20031;-67
2022/10/02 07:14:15;;;;;;;18.80;3.22;;;12.30;99.90;;;;;;5155370;27;20419;-66
2022/10/02 07:16:59;;;;;;;19.25;3.17;;;12.30;99.90;;;;;;5155851;27;20035;-66
2022/10/02 07:19:39;;;;;;;15.25;3.72;;;12.40;99.90;;;;;;5156190;27;20376;-66
2022/10/02 07:22:20;;;;;;;12.70;3.40;;;12.40;99.90;;;;;;5152433;27;20114;-66
2022/10/02 07:25:16;;;;;;;14.32;3.42;;;12.40;99.90;;;;;;5144715;27;20058;-66
2022/10/02 07:27:56;;;;;;;23.83;3.55;;;12.50;99.90;;;;;;5145927;27;20126;-66
2022/10/02 07:30:22;;;;;;;19.13;3.67;;;12.50;99.90;;;;;;5146008;27;20034;-66
2022/10/02 07:33:06;;;;;;;21.50;3.33;;;12.50;99.90;;;;;;5144764;27;20407;-66
2022/10/02 07:35:43;;;;;;;13.93;2.70;;;12.60;99.90;;;;;;5147923;27;20057;-66
2022/10/02 07:38:42;;;;;;;19.92;3.00;;;12.60;99.90;;;;;;5151417;27;20074;-66
2022/10/02 07:41:19;;;;;;;20.42;3.83;;;12.60;99.90;;;;;;5146672;27;20042;-68
2022/10/02 07:44:00;;;;;;;15.10;3.20;;;12.70;99.90;;;;;;5155255;27;20043;-68
2022/10/02 07:46:25;;;;;;;15.07;2.75;;;12.80;99.90;;;;;;5155110;27;20070;-67
2022/10/02 07:49:27;;;;;;;18.65;3.63;;;12.90;99.90;;;;;;5153682;27;20081;-67
2022/10/02 07:52:17;;;;;;;13.75;2.70;;;12.90;99.90;;;;;;5153342;27;20043;-67
2022/10/02 07:55:19;;;;;;;15.02;3.13;;;13.00;99.90;;;;;;5152671;27;20035;-67
2022/10/02 07:57:51;;;;;;;12.65;3.03;;;13.10;99.90;;;;;;5149609;27;20065;-67
2022/10/02 08:00:18;;;;;;;21.35;2.50;;;13.10;99.90;;;;;;5153322;27;20054;-67
2022/10/02 08:02:59;;;;;;;14.27;2.97;;;13.20;99.90;;;;;;5151851;27;20062;-67
2022/10/02 08:05:32;;;;;;;19.98;3.17;;;13.20;99.90;;;;;;5154573;27;20498;-67
2022/10/02 08:08:13;;;;;;;13.48;2.67;;;13.20;99.90;;;;;;5154873;27;20052;-67
2022/10/02 08:10:42;;;;;;;15.57;2.95;;;13.20;99.90;;;;;;5155047;27;20398;-67
2022/10/02 08:13:29;;;;;;;18.60;2.88;;;13.20;99.90;;;;;;5155021;27;20047;-67
2022/10/02 08:15:55;;;;;;;16.33;2.58;;;13.30;99.90;;;;;;5154976;27;20070;-67
2022/10/02 08:18:41;;;;;;;12.00;2.80;;;13.30;99.90;;;;;;5154707;27;20125;-67
2022/10/02 08:21:19;;;;;;;23.13;3.78;;;13.30;99.90;;;;;;5155052;27;20047;-67
2022/10/02 08:24:19;;;;;;;12.93;2.72;;;13.40;99.90;;;;;;5154599;27;20046;-67
2022/10/02 08:26:51;;;;;;;17.83;2.70;;;13.40;99.90;;;;;;5149915;27;20117;-67
2022/10/02 08:29:39;;;;;;;21.30;2.90;;;13.40;99.90;;;;;;5154696;27;20038;-67
2022/10/02 08:32:12;;;;;;;15.18;3.50;;;13.50;99.90;;;;;;5154502;27;20074;-67
2022/10/02 08:34:39;;;;;;;15.75;3.05;;;13.60;99.90;;;;;;5154204;27;20046;-67
2022/10/02 08:37:15;;;;;;;15.77;2.95;;;13.70;99.90;;;;;;5154315;27;20038;-67
2022/10/02 08:40:23;;;;;;;16.75;3.47;;;13.80;99.90;;;;;;5153045;27;20038;-67
2022/10/02 08:43:13;;;;;;;13.80;2.53;;;13.80;99.90;;;;;;5154430;27;20079;-68
2022/10/02 08:46:01;;;;;;;15.50;2.70;;;13.80;99.90;;;;;;5135406;27;20046;-67
2022/10/02 08:48:53;;;;;;;18.90;3.10;;;13.90;99.90;;;;;;5152937;27;20051;-68
2022/10/02 08:51:41;;;;;;;13.38;2.67;;;13.80;99.90;;;;;;5154196;27;20459;-67
2022/10/02 08:54:15;;;;;;;10.90;2.42;;;13.90;99.90;;;;;;5152477;27;20106;-67
2022/10/02 08:56:59;;;;;;;15.55;2.75;;;14.00;99.90;;;;;;5152661;27;20035;-67
2022/10/02 09:00:04;;;;;;;16.95;2.85;;;14.00;99.90;;;;;;5153894;27;20045;-67
2022/10/02 09:03:08;;;;;;;15.55;3.05;;;14.00;99.90;;;;;;5152946;27;20146;-67
2022/10/02 09:06:16;;;;;;;12.52;3.13;;;14.10;99.90;;;;;;5153524;27;20097;-67
2022/10/02 09:09:28;;;;;;;7.95;1.95;;;14.10;99.90;;;;;;5153270;27;20173;-67
2022/10/02 09:12:27;;;;;;;17.77;2.63;;;14.20;99.90;;;;;;5153888;27;20042;-67
2022/10/02 09:15:13;;;;;;;13.73;2.90;;;14.30;99.90;;;;;;5153425;27;20039;-67
2022/10/02 09:18:02;;;;;;;13.13;2.28;;;14.30;99.90;;;;;;5153803;27;20038;-67
2022/10/02 09:20:56;;;;;;;17.08;2.28;;;14.40;99.90;;;;;;5153234;27;20054;-67
2022/10/02 09:23:36;;;;;;;11.30;2.22;;;14.40;99.90;;;;;;5152394;27;20047;-67
2022/10/02 09:26:35;;;;;;;12.15;3.15;;;14.50;99.90;;;;;;5151937;27;20081;-67
2022/10/02 09:29:22;;;;;;;12.85;1.95;;;14.50;99.90;;;;;;5152218;27;20038;-67
2022/10/02 09:32:20;;;;;;;10.80;2.30;;;14.60;99.90;;;;;;5153700;27;20067;-67
2022/10/02 09:35:23;;;;;;;12.55;3.58;;;14.60;99.90;;;;;;5152182;27;20039;-67
2022/10/02 09:38:20;;;;;;;7.35;2.20;;;14.60;99.90;;;;;;5152453;27;20046;-67
2022/10/02 09:41:12;;;;;;;15.57;2.47;;;14.60;99.90;;;;;;5153482;27;20046;-67
2022/10/02 09:44:13;;;;;;;7.72;1.90;;;14.60;99.90;;;;;;5153414;27;20041;-67
2022/10/02 09:47:03;;;;;;;16.30;2.53;;;14.70;99.90;;;;;;5153404;27;20081;-67
2022/10/02 09:49:50;;;;;;;14.40;2.42;;;14.70;99.90;;;;;;5153395;27;20071;-67
2022/10/02 09:52:44;;;;;;;13.82;2.33;;;14.80;99.90;;;;;;5153761;27;20075;-67
2022/10/02 09:55:41;;;;;;;13.68;2.35;;;14.80;99.90;;;;;;5151600;27;20038;-67
2022/10/02 09:58:44;;;;;;;14.65;2.25;;;14.80;99.90;;;;;;5153023;27;20087;-67
2022/10/02 10:01:43;;;;;;;14.77;2.35;;;14.90;99.90;;;;;;5153414;27;20041;-67
2022/10/02 10:04:56;;;;;;;12.43;2.15;;;14.90;99.90;;;;;;5151916;27;20494;-67
2022/10/02 10:07:46;;;;;;;14.93;2.45;;;14.90;99.90;;;;;;5062071;27;20052;-67
2022/10/02 10:10:39;;;;;;;18.65;2.22;;;14.90;99.90;;;;;;5151960;27;20035;-67
2022/10/02 10:13:22;;;;;;;11.02;2.47;;;15.00;99.90;;;;;;5152146;27;20057;-67
2022/10/02 10:16:21;;;;;;;11.52;1.92;;;15.00;99.90;;;;;;5151759;27;20390;-67
2022/10/02 10:19:12;;;;;;;14.07;2.20;;;15.10;99.90;;;;;;5153409;27;20042;-67
2022/10/02 10:22:30;;;;;;;9.82;1.98;;;15.30;99.90;;;;;;5155529;27;20122;-67
2022/10/02 10:25:27;;;;;;;15.00;2.55;;;15.40;99.90;;;;;;5113436;27;20064;-67
2022/10/02 10:28:14;;;;;;;12.10;2.20;;;15.50;99.90;;;;;;5156911;27;20041;-67
2022/10/02 10:30:55;;;;;;;15.20;2.20;;;15.50;99.90;;;;;;5155885;27;20530;-67
2022/10/02 10:33:42;;;;;;;10.43;1.70;;;15.50;99.90;;;;;;5156881;27;20047;-67
2022/10/02 10:39:29;;;;;;;11.75;2.20;;;15.70;99.90;;;;;;5156614;27;20078;-67
2022/10/02 10:42:29;;;;;;;12.93;1.95;;;15.60;99.90;;;;;;5155251;27;20046;-67
2022/10/02 10:45:21;;;;;;;7.60;1.60;;;15.50;99.90;;;;;;5156366;27;20432;-67
2022/10/02 10:48:06;;;;;;;12.50;1.77;;;15.50;99.90;;;;;;5156573;27;20035;-67
2022/10/02 10:50:36;;;;;;;15.88;2.72;;;15.50;99.90;;;;;;5156399;27;20042;-67
2022/10/02 10:53:12;;;;;;;7.07;1.65;;;15.50;99.90;;;;;;5155323;27;20118;-67
2022/10/02 10:56:16;;;;;;;11.32;1.85;;;15.50;99.90;;;;;;5154896;27;20035;-67
2022/10/02 10:59:17;;;;;;;14.10;2.10;;;15.60;99.90;;;;;;5156124;27;20186;-67
2022/10/02 11:01:57;;;;;;;8.82;1.88;;;15.60;99.90;;;;;;5156554;27;20050;-67
2022/10/02 11:04:56;;;;;;;11.02;1.80;;;15.70;99.90;;;;;;5155970;27;20022;-67
2022/10/02 11:07:49;;;;;;;14.65;2.35;;;15.80;99.90;;;;;;5156179;27;20069;-67
2022/10/02 11:10:20;;;;;;;13.02;2.30;;;15.80;99.90;;;;;;5154880;27;20070;-67
2022/10/02 11:13:08;;;;;;;10.95;1.60;;;15.90;99.90;;;;;;5156165;27;20050;-67
2022/10/02 11:15:55;;;;;;;13.20;1.90;;;15.90;99.90;;;;;;5155603;27;20060;-66
2022/10/02 11:19:06;;;;;;;10.93;1.70;;;15.90;99.90;;;;;;5156160;27;20049;-67
2022/10/02 11:21:41;;;;;;;9.25;1.65;;;16.00;99.90;;;;;;5154666;27;20038;-67
2022/10/02 11:24:20;;;;;;;10.15;1.88;;;16.00;99.90;;;;;;5155728;27;20050;-67
2022/10/02 11:26:46;;;;;;;16.58;1.90;;;16.00;99.90;;;;;;5155833;27;20035;-67
2022/10/02 11:29:32;;;;;;;10.48;2.05;;;16.10;99.90;;;;;;5155599;27;20098;-67
2022/10/02 11:32:32;;;;;;;11.85;1.90;;;16.00;99.90;;;;;;5154056;27;20034;-67
2022/10/02 11:35:20;;;;;;;10.55;1.98;;;16.10;99.90;;;;;;5155275;27;20490;-67
2022/10/02 11:37:59;;;;;;;9.20;1.98;;;16.10;99.90;;;;;;5155664;27;20042;-67
2022/10/02 11:40:33;;;;;;;8.25;1.73;;;16.20;99.90;;;;;;5155421;27;20126;-67
2022/10/02 11:43:12;;;;;;;12.10;1.95;;;16.30;99.90;;;;;;5155818;27;20121;-67
2022/10/02 11:46:15;;;;;;;7.53;1.75;;;16.40;99.90;;;;;;5155335;27;20047;-67
2022/10/02 11:49:19;;;;;;;12.80;1.70;;;16.30;99.90;;;;;;5155400;27;20254;-67
2022/10/02 11:51:45;;;;;;;9.32;1.95;;;16.20;99.90;;;;;;5155307;27;20039;-67
2022/10/02 11:54:43;;;;;;;7.97;1.30;;;16.20;99.90;;;;;;5155007;27;20145;-67
2022/10/02 11:57:33;;;;;;;11.70;1.70;;;16.10;99.90;;;;;;5153979;27;20043;-67
2022/10/02 12:00:09;;;;;;;6.50;1.38;;;16.00;99.90;;;;;;5153844;27;20502;-67
2022/10/02 12:02:45;;;;;;;9.68;1.67;;;15.90;99.90;;;;;;5154172;27;20509;-67
2022/10/02 12:05:34;;;;;;;9.95;1.90;;;15.90;99.90;;;;;;5153690;27;20034;-67
2022/10/02 12:08:23;;;;;;;8.57;2.25;;;15.90;99.90;;;;;;5155107;27;20053;-67
2022/10/02 12:10:58;;;;;;;14.88;2.75;;;15.90;99.90;;;;;;5153649;27;20053;-67
2022/10/02 12:13:50;;;;;;;20.00;2.33;;;15.90;99.90;;;;;;5154968;27;20061;-67
2022/10/02 12:16:34;;;;;;;14.18;2.25;;;15.90;99.90;;;;;;5153812;27;20027;-67
2022/10/02 12:19:18;;;;;;;15.52;2.08;;;16.00;99.90;;;;;;5153697;27;20479;-67
2022/10/02 12:28:35;;;;;;;13.38;2.10;;;16.00;99.90;;;;;;5153133;27;20133;-67
2022/10/02 12:31:04;;;;;;;14.70;1.95;;;16.10;99.90;;;;;;5154619;27;20111;-67
2022/10/02 12:33:39;;;;;;;12.63;2.20;;;16.10;99.90;;;;;;5154658;27;20038;-67
2022/10/02 12:36:33;;;;;;;10.13;2.17;;;16.20;99.90;;;;;;5154126;27;20402;-67
2022/10/02 12:39:18;;;;;;;19.88;2.58;;;16.20;99.90;;;;;;5154249;27;20049;-67
2022/10/02 12:41:57;;;;;;;12.48;2.13;;;16.20;99.90;;;;;;5135539;27;20038;-67
2022/10/02 12:44:52;;;;;;;16.35;1.80;;;16.30;99.90;;;;;;5152863;27;20043;-67
2022/10/02 12:47:20;;;;;;;18.40;2.20;;;16.30;99.90;;;;;;5154278;27;20053;-67
2022/10/02 12:49:55;;;;;;;15.30;2.28;;;16.40;99.90;;;;;;5135546;27;20050;-67
2022/10/02 12:52:49;;;;;;;8.32;1.88;;;16.40;99.90;;;;;;5152792;27;20034;-67
2022/10/02 12:55:51;;;;;;;11.73;1.95;;;16.50;99.90;;;;;;5152423;27;20050;-67
2022/10/02 12:58:25;;;;;;;10.95;2.30;;;16.40;99.90;;;;;;5154035;27;20042;-67
2022/10/02 13:01:33;;;;;;;8.65;2.22;;;16.40;99.90;;;;;;5152865;27;20387;-67
2022/10/02 13:04:25;;;;;;;9.63;2.00;;;16.30;99.90;;;;;;5138742;27;20046;-67
2022/10/02 13:07:15;;;;;;;10.10;1.90;;;16.30;99.90;;;;;;5153878;27;20113;-66
2022/10/02 13:10:04;;;;;;;13.07;1.98;;;16.20;99.90;;;;;;5153805;27;20030;-67
2022/10/02 13:12:49;;;;;;;9.18;1.77;;;16.20;99.90;;;;;;5153929;27;20030;-67
2022/10/02 13:15:36;;;;;;;13.82;1.90;;;16.20;99.90;;;;;;5153518;27;20039;-66
2022/10/02 13:18:10;;;;;;;13.50;2.05;;;16.30;99.90;;;;;;5153614;27;20487;-66
2022/10/02 13:20:55;;;;;;;13.55;1.95;;;16.30;99.90;;;;;;5153610;27;20057;-67
2022/10/02 13:23:32;;;;;;;9.10;2.22;;;16.20;99.90;;;;;;5153795;27;20121;-66
2022/10/02 13:26:07;;;;;;;13.02;2.75;;;16.30;99.90;;;;;;5153319;27;20066;-66
2022/10/02 13:28:45;;;;;;;12.57;1.88;;;16.30;99.90;;;;;;5152222;27;20050;-66
2022/10/02 13:31:20;;;;;;;14.00;1.95;;;16.30;99.90;;;;;;5153516;27;20495;-66
2022/10/02 13:34:08;;;;;;;13.80;2.20;;;16.30;99.90;;;;;;5134649;27;20078;-66
2022/10/02 13:36:56;;;;;;;8.18;1.70;;;16.40;99.90;;;;;;5153453;27;20035;-67
2022/10/02 13:39:45;;;;;;;8.80;1.75;;;16.40;99.90;;;;;;5153420;27;20616;-67
2022/10/02 13:42:16;;;;;;;10.90;1.95;;;16.40;99.90;;;;;;5153583;27;20043;-66
2022/10/02 13:45:14;;;;;;;11.27;1.85;;;16.50;99.90;;;;;;5153051;27;20039;-67
2022/10/02 13:47:56;;;;;;;12.48;1.70;;;16.40;99.90;;;;;;5152009;27;20051;-66
2022/10/02 13:50:35;;;;;;;11.32;1.92;;;16.40;99.90;;;;;;5153325;27;20039;-66
2022/10/02 13:53:17;;;;;;;8.85;1.90;;;16.40;99.90;;;;;;5153605;27;20483;-66
2022/10/02 13:55:58;;;;;;;10.95;2.10;;;16.30;99.90;;;;;;5157189;27;20038;-66
2022/10/02 13:58:35;;;;;;;19.73;2.10;;;16.40;99.90;;;;;;5157585;27;20097;-66
2022/10/02 14:01:26;;;;;;;12.00;2.08;;;16.40;99.90;;;;;;5156116;27;20076;-67
2022/10/02 14:04:48;;;;;;;14.73;2.50;;;16.40;99.90;;;;;;5155780;27;20035;-67
2022/10/02 14:07:31;;;;;;;16.33;2.08;;;16.30;99.90;;;;;;5072819;28;20048;-67
2022/10/02 14:10:21;;;;;;;10.88;2.55;;;16.30;99.90;;;;;;5157281;27;20041;-67